Terminal Aerodrome Forecast
Issued by NWS

Home | Current Version | Previous Version | Text Only | Print | Product List | Glossary On
Versions: 1 2 3 4 5 6 7 8 9 10 11 12 13 14 15 16 17 18 19 20 21
000
FTUS46 KSEW 202336
TAFBLI
TAF
KBLI 202336Z 2100/2124 24007KT P6SM -RA SCT015 OVC040
     FM210600 16004KT P6SM VCSH SCT010 BKN018 OVC025
     FM211400 36004KT P6SM SCT015 BKN040
     FM212100 26006KT P6SM SCT020 BKN200=

USA.gov is the U.S. government's official web portal to all federal, state and local government web resources and services.